Time;durP1;ratioP1;P1;durP2;ratioP2;P2;SDS_P1;SDS_P2;PMS_P1;PMS_P2;Temp;Humidity;BMP_temperature;BMP_pressure;BME280_temperature;BME280_humidity;BME280_pressure;Samples;Min_cycle;Max_cycle;Signal;HPM_P1;HPM_P2
2023/10/05 00:04:39;;;;;;;11.00;3.60;;;17.10;1.00;;;;;;6123619;23;20018;-66
2023/10/05 00:07:10;;;;;;;10.30;3.15;;;17.80;1.00;;;;;;6123348;23;20018;-67
2023/10/05 00:09:37;;;;;;;10.00;2.65;;;17.00;1.00;;;;;;6122325;23;20060;-66
2023/10/05 00:12:05;;;;;;;12.27;3.30;;;17.00;1.00;;;;;;6123207;23;20018;-66
2023/10/05 00:14:30;;;;;;;11.45;2.88;;;16.90;1.00;;;;;;6096883;23;20014;-66
2023/10/05 00:16:56;;;;;;;10.80;3.20;;;16.80;1.00;;;;;;6123139;23;20076;-66
2023/10/05 00:19:26;;;;;;;16.05;3.65;;;16.80;1.00;;;;;;6095420;23;20021;-68
2023/10/05 00:21:52;;;;;;;10.55;3.38;;;16.70;1.00;;;;;;6123050;23;20017;-66
2023/10/05 00:24:31;;;;;;;10.63;2.92;;;16.80;1.00;;;;;;6123371;23;20017;-66
2023/10/05 00:27:08;;;;;;;11.10;3.33;;;16.70;1.00;;;;;;6097258;23;20010;-66
2023/10/05 00:29:41;;;;;;;13.57;3.88;;;17.00;1.00;;;;;;6096195;23;20014;-66
2023/10/05 00:32:34;;;;;;;10.75;3.20;;;17.70;1.00;;;;;;6122063;23;20102;-66
2023/10/05 00:35:16;;;;;;;12.85;3.40;;;16.70;1.00;;;;;;6122699;23;20523;-66
2023/10/05 00:37:46;;;;;;;12.32;2.80;;;17.30;1.00;;;;;;6121751;23;20014;-66
2023/10/05 00:40:43;;;;;;;9.18;3.17;;;17.00;1.00;;;;;;6072274;23;20060;-66
2023/10/05 00:43:19;;;;;;;9.43;2.70;;;17.00;1.00;;;;;;6122901;23;20033;-66
2023/10/05 00:45:48;;;;;;;9.45;3.10;;;17.10;1.00;;;;;;6097138;23;20068;-66
2023/10/05 00:48:34;;;;;;;14.25;4.20;;;17.40;1.00;;;;;;6121803;23;20010;-67
2023/10/05 00:51:06;;;;;;;11.05;2.65;;;16.80;1.00;;;;;;6122839;23;20018;-66
2023/10/05 00:53:32;;;;;;;13.23;3.38;;;17.10;1.00;;;;;;6097042;23;20487;-67
2023/10/05 00:56:07;;;;;;;10.32;3.72;;;17.10;1.00;;;;;;6096856;23;20021;-66
2023/10/05 00:58:43;;;;;;;10.70;3.17;;;16.70;1.00;;;;;;6095776;23;20017;-66
2023/10/05 01:01:25;;;;;;;10.18;3.22;;;16.80;1.00;;;;;;6096434;23;20018;-66
2023/10/05 01:06:55;;;;;;;8.30;3.08;;;16.50;1.00;;;;;;6122163;23;20022;-66
2023/10/05 01:12:00;;;;;;;10.30;3.10;;;16.80;1.00;;;;;;6122137;23;20028;-66
2023/10/05 01:14:45;;;;;;;10.88;3.05;;;17.00;1.00;;;;;;6096313;23;20459;-66
2023/10/05 01:17:11;;;;;;;9.70;3.00;;;17.30;1.00;;;;;;6122668;23;20024;-66
2023/10/05 01:19:39;;;;;;;14.63;3.22;;;17.30;1.00;;;;;;6095303;23;20966;-66
2023/10/05 01:22:11;;;;;;;11.77;3.13;;;17.20;1.00;;;;;;6094171;23;20057;-66
2023/10/05 01:24:37;;;;;;;11.00;3.25;;;16.90;1.00;;;;;;6095573;23;20014;-66
2023/10/05 01:27:03;;;;;;;10.80;2.83;;;17.20;1.00;;;;;;6121399;23;20018;-66
2023/10/05 01:29:29;;;;;;;8.98;2.65;;;16.50;1.00;;;;;;6096457;23;20443;-66
2023/10/05 01:31:57;;;;;;;7.53;2.38;;;16.70;1.00;;;;;;6094782;23;20024;-66
2023/10/05 01:34:24;;;;;;;8.80;2.90;;;17.00;1.00;;;;;;6096080;23;20010;-66
2023/10/05 01:36:50;;;;;;;9.93;2.90;;;16.90;1.00;;;;;;6122173;23;20122;-66
2023/10/05 01:39:18;;;;;;;10.27;3.22;;;17.10;1.00;;;;;;6095690;23;20017;-66
2023/10/05 01:41:47;;;;;;;7.10;3.13;;;17.10;1.00;;;;;;6120162;23;20049;-67
2023/10/05 01:44:14;;;;;;;10.95;3.13;;;17.00;1.00;;;;;;6122662;23;20081;-67
2023/10/05 01:46:40;;;;;;;9.18;2.42;;;16.90;1.00;;;;;;6096317;23;20466;-66
2023/10/05 01:49:06;;;;;;;10.75;2.55;;;16.90;1.00;;;;;;6095800;23;20351;-66
2023/10/05 01:51:31;;;;;;;12.32;3.10;;;17.40;1.00;;;;;;6122664;23;20045;-66
2023/10/05 01:54:05;;;;;;;10.32;2.55;;;16.60;1.00;;;;;;6071490;23;20021;-66
2023/10/05 01:56:32;;;;;;;13.63;2.92;;;17.00;1.00;;;;;;6122606;23;20053;-66
2023/10/05 01:59:00;;;;;;;9.55;2.65;;;17.60;1.00;;;;;;6071836;23;20065;-66
2023/10/05 02:01:28;;;;;;;8.27;2.60;;;17.10;1.00;;;;;;6121237;23;20022;-66
2023/10/05 02:03:57;;;;;;;10.38;2.88;;;16.70;1.00;;;;;;6122032;23;20020;-66
2023/10/05 02:06:22;;;;;;;13.30;2.90;;;16.80;1.00;;;;;;6122460;23;20010;-66
2023/10/05 02:08:48;;;;;;;12.10;3.80;;;16.90;1.00;;;;;;6121019;23;20010;-67
2023/10/05 02:11:27;;;;;;;8.38;2.88;;;17.00;1.00;;;;;;6121858;23;20010;-66
2023/10/05 02:13:57;;;;;;;7.43;2.92;;;16.50;1.00;;;;;;6120341;23;20018;-66
2023/10/05 02:16:23;;;;;;;15.20;4.25;;;17.00;1.00;;;;;;6122035;23;20014;-66
2023/10/05 02:18:49;;;;;;;11.88;3.78;;;16.60;1.00;;;;;;6120620;23;20447;-66
2023/10/05 02:21:19;;;;;;;12.35;3.50;;;17.00;1.00;;;;;;6120496;23;20022;-66
2023/10/05 02:23:47;;;;;;;7.53;2.90;;;17.10;1.00;;;;;;6121233;23;20010;-66
2023/10/05 02:28:58;;;;;;;10.32;4.32;;;17.10;1.00;;;;;;6117827;23;20045;-66
2023/10/05 02:31:28;;;;;;;13.35;3.78;;;16.80;1.00;;;;;;6094114;23;20048;-66
2023/10/05 02:33:56;;;;;;;10.85;3.20;;;17.40;1.00;;;;;;6115993;23;20014;-66
2023/10/05 02:36:26;;;;;;;11.68;3.47;;;16.80;1.00;;;;;;6118131;23;20452;-66
2023/10/05 02:38:55;;;;;;;11.32;3.28;;;16.70;1.00;;;;;;6121306;23;20325;-66
2023/10/05 02:41:25;;;;;;;10.90;3.50;;;16.90;1.00;;;;;;6119668;23;20018;-66
2023/10/05 02:43:53;;;;;;;13.85;3.58;;;16.90;4.70;;;;;;6120324;23;20064;-66
2023/10/05 02:46:20;;;;;;;11.80;3.00;;;16.70;13.50;;;;;;6120146;23;20014;-66
2023/10/05 02:48:47;;;;;;;12.15;3.88;;;17.10;12.50;;;;;;6120038;23;20009;-67
2023/10/05 02:51:16;;;;;;;10.13;3.67;;;16.70;17.10;;;;;;6122617;23;20018;-67
2023/10/05 02:53:41;;;;;;;11.63;3.50;;;17.20;23.30;;;;;;6122535;23;20502;-67
2023/10/05 02:56:22;;;;;;;11.38;3.53;;;17.00;21.90;;;;;;6123086;23;20017;-67
2023/10/05 02:58:54;;;;;;;11.30;3.72;;;16.90;25.60;;;;;;6121211;23;20116;-66
2023/10/05 03:01:21;;;;;;;12.40;3.10;;;17.20;30.00;;;;;;6122947;23;20021;-66
2023/10/05 03:03:52;;;;;;;11.63;3.85;;;16.70;38.60;;;;;;6122008;23;20089;-66
2023/10/05 03:06:22;;;;;;;10.38;3.25;;;16.50;19.60;;;;;;6123654;23;20010;-66
2023/10/05 03:08:49;;;;;;;11.20;3.40;;;17.00;41.20;;;;;;6122412;23;20017;-66
2023/10/05 03:11:18;;;;;;;12.57;3.22;;;17.30;46.10;;;;;;6121517;23;20021;-67
2023/10/05 03:13:44;;;;;;;8.13;2.90;;;16.90;47.40;;;;;;6097129;23;20110;-66
2023/10/05 03:16:10;;;;;;;12.52;3.08;;;16.60;54.70;;;;;;6123309;23;20080;-66
2023/10/05 03:18:42;;;;;;;11.82;3.40;;;16.50;51.90;;;;;;6122668;23;20482;-66
2023/10/05 03:21:10;;;;;;;8.32;2.83;;;17.10;53.60;;;;;;6121854;23;20093;-66
2023/10/05 03:23:37;;;;;;;10.60;3.45;;;17.30;64.90;;;;;;6123087;23;20158;-66
2023/10/05 03:26:02;;;;;;;12.70;3.80;;;16.60;63.00;;;;;;6123451;23;20469;-66
2023/10/05 03:28:30;;;;;;;12.55;3.13;;;17.10;67.60;;;;;;6121375;23;20033;-67
2023/10/05 03:30:57;;;;;;;9.55;2.83;;;16.90;70.10;;;;;;6123152;23;20021;-66
2023/10/05 03:33:23;;;;;;;12.52;3.50;;;16.60;76.30;;;;;;6120757;23;20503;-66
2023/10/05 03:35:56;;;;;;;11.70;3.65;;;16.60;83.70;;;;;;6122863;23;20014;-66
2023/10/05 03:38:22;;;;;;;13.10;3.72;;;16.30;87.90;;;;;;6122692;23;20018;-66
2023/10/05 03:40:48;;;;;;;12.63;3.95;;;16.90;96.70;;;;;;6123812;23;20018;-67
2023/10/05 03:43:14;;;;;;;11.77;3.35;;;16.50;92.90;;;;;;6124173;23;20013;-66
2023/10/05 03:45:39;;;;;;;13.90;3.83;;;16.80;99.10;;;;;;6122062;23;20352;-66
2023/10/05 03:48:06;;;;;;;12.45;3.35;;;16.80;99.90;;;;;;6121834;23;20010;-66
2023/10/05 03:50:31;;;;;;;13.38;4.20;;;17.10;99.90;;;;;;6121234;23;20018;-67
2023/10/05 03:52:58;;;;;;;11.77;4.03;;;16.70;99.90;;;;;;6123008;23;20444;-66
2023/10/05 03:55:24;;;;;;;10.95;3.60;;;16.70;99.90;;;;;;6121770;23;20017;-66
2023/10/05 03:57:50;;;;;;;10.95;3.30;;;16.70;99.90;;;;;;6121067;23;20009;-66
2023/10/05 04:02:47;;;;;;;11.27;4.22;;;17.60;99.90;;;;;;6122180;23;20018;-66
2023/10/05 04:05:17;;;;;;;13.40;4.00;;;17.30;99.90;;;;;;6120920;23;20072;-66
2023/10/05 04:07:43;;;;;;;12.20;4.13;;;16.30;99.90;;;;;;6123661;23;20010;-67
2023/10/05 04:10:13;;;;;;;16.42;3.75;;;17.10;99.90;;;;;;6120606;23;20158;-66
2023/10/05 04:12:40;;;;;;;11.82;4.15;;;16.70;99.90;;;;;;6122158;23;20093;-67
2023/10/05 04:15:11;;;;;;;13.88;4.07;;;16.80;99.90;;;;;;6121983;23;20448;-66
2023/10/05 04:17:38;;;;;;;12.20;3.72;;;17.60;99.90;;;;;;6096443;23;20021;-66
2023/10/05 04:20:09;;;;;;;11.60;3.78;;;16.90;99.90;;;;;;6120167;23;20018;-66
2023/10/05 04:22:37;;;;;;;11.95;3.47;;;17.00;99.90;;;;;;6123320;23;20017;-67
2023/10/05 04:25:04;;;;;;;12.50;3.80;;;17.00;99.90;;;;;;6121176;23;20084;-66
2023/10/05 04:27:32;;;;;;;12.45;3.00;;;16.90;99.90;;;;;;6121085;23;20010;-67
2023/10/05 04:29:58;;;;;;;12.73;3.28;;;16.70;99.90;;;;;;6122530;23;20014;-66
2023/10/05 04:32:24;;;;;;;17.33;4.55;;;17.20;99.90;;;;;;6096587;23;20018;-66
2023/10/05 04:34:50;;;;;;;11.27;3.40;;;17.00;99.90;;;;;;6123454;23;20022;-67
2023/10/05 04:37:16;;;;;;;15.90;4.15;;;16.50;99.90;;;;;;6122824;23;20014;-67
2023/10/05 04:39:43;;;;;;;14.00;4.45;;;16.90;99.90;;;;;;6122067;23;20014;-70
2023/10/05 04:42:11;;;;;;;17.25;4.60;;;16.60;99.90;;;;;;6120085;23;20022;-70
2023/10/05 04:44:39;;;;;;;22.35;5.78;;;17.30;99.90;;;;;;6121088;23;20017;-69
2023/10/05 04:47:05;;;;;;;17.20;5.03;;;16.80;99.90;;;;;;6095948;23;20431;-69
2023/10/05 04:49:31;;;;;;;14.40;4.82;;;16.60;99.90;;;;;;6120466;23;20018;-69
2023/10/05 04:51:59;;;;;;;18.27;4.45;;;17.10;99.90;;;;;;6121874;23;20048;-69
2023/10/05 04:54:31;;;;;;;16.85;4.97;;;16.70;99.90;;;;;;6120888;23;20017;-70
2023/10/05 04:57:07;;;;;;;18.05;4.72;;;16.80;99.90;;;;;;6096864;23;20076;-69
2023/10/05 05:02:12;;;;;;;18.63;5.75;;;16.80;99.90;;;;;;6119506;23;20026;-70
2023/10/05 05:04:52;;;;;;;13.70;4.03;;;16.80;99.90;;;;;;6120876;23;20029;-69
2023/10/05 05:07:21;;;;;;;14.40;3.55;;;16.70;99.90;;;;;;6121219;23;20014;-69
2023/10/05 05:09:55;;;;;;;12.63;3.83;;;17.30;99.90;;;;;;6119757;23;20037;-70
2023/10/05 05:12:24;;;;;;;16.73;4.43;;;16.40;99.90;;;;;;6095883;23;20164;-69
2023/10/05 05:14:52;;;;;;;13.13;3.85;;;17.30;99.90;;;;;;6120711;23;20017;-70
2023/10/05 05:17:21;;;;;;;19.13;5.30;;;16.80;99.90;;;;;;6095704;23;20507;-70
2023/10/05 05:19:47;;;;;;;14.95;3.22;;;16.70;99.90;;;;;;6119733;23;20017;-70
2023/10/05 05:22:13;;;;;;;10.23;3.42;;;16.50;99.90;;;;;;6119448;23;20017;-70
2023/10/05 05:24:40;;;;;;;14.52;3.85;;;17.30;99.90;;;;;;6093916;23;20057;-71
2023/10/05 05:29:45;;;;;;;11.45;3.40;;;;;;;;;;6117305;23;20025;-70
2023/10/05 05:32:11;;;;;;;17.15;3.72;;;17.10;99.90;;;;;;6119566;23;20021;-70
2023/10/05 05:34:55;;;;;;;14.88;3.60;;;16.90;99.90;;;;;;6120351;23;20359;-70
2023/10/05 05:37:30;;;;;;;15.80;4.35;;;;;;;;;;6120119;23;20033;-70
2023/10/05 05:39:57;;;;;;;13.63;4.22;;;17.10;99.90;;;;;;6091053;23;20022;-71
2023/10/05 05:42:30;;;;;;;13.25;3.50;;;17.30;99.90;;;;;;6121444;23;20014;-70
2023/10/05 05:44:55;;;;;;;14.80;4.20;;;16.60;99.90;;;;;;6121369;23;20416;-70
2023/10/05 05:47:22;;;;;;;15.98;4.47;;;;;;;;;;6121700;23;20033;-70
2023/10/05 05:49:47;;;;;;;15.60;3.53;;;16.90;99.90;;;;;;6120938;23;20014;-70
2023/10/05 05:52:14;;;;;;;9.27;3.53;;;16.80;99.90;;;;;;6120393;23;20020;-70
2023/10/05 05:54:41;;;;;;;9.20;2.95;;;17.10;99.90;;;;;;6123147;23;20069;-70
2023/10/05 05:57:07;;;;;;;14.20;3.97;;;16.90;99.90;;;;;;6095268;23;20472;-70
2023/10/05 05:59:34;;;;;;;9.20;2.95;;;17.20;99.90;;;;;;6093901;23;20009;-70
2023/10/05 06:02:03;;;;;;;10.40;3.13;;;16.90;99.90;;;;;;6120167;23;20021;-70
2023/10/05 06:04:32;;;;;;;13.65;4.20;;;17.20;99.90;;;;;;6121140;23;20010;-70
2023/10/05 06:06:58;;;;;;;13.27;3.42;;;16.90;99.90;;;;;;6119493;23;20042;-70
2023/10/05 06:09:26;;;;;;;11.77;4.15;;;17.30;99.90;;;;;;6120216;23;20018;-69
2023/10/05 06:11:53;;;;;;;11.93;4.28;;;16.80;99.90;;;;;;6119058;23;20022;-71
2023/10/05 06:14:19;;;;;;;14.10;3.95;;;17.30;99.90;;;;;;6119706;23;20014;-70
2023/10/05 06:16:45;;;;;;;10.98;3.60;;;16.70;99.90;;;;;;6119696;23;20324;-70
2023/10/05 06:19:11;;;;;;;15.07;3.83;;;16.60;99.90;;;;;;6119925;23;20359;-70
2023/10/05 06:21:37;;;;;;;17.33;4.35;;;16.90;99.90;;;;;;6119900;23;20627;-70
2023/10/05 06:24:04;;;;;;;12.80;3.50;;;17.30;99.90;;;;;;6122093;23;20018;-70
2023/10/05 06:26:30;;;;;;;10.02;3.15;;;16.40;99.90;;;;;;6116980;23;20088;-70
2023/10/05 06:28:56;;;;;;;15.88;3.03;;;16.70;99.90;;;;;;6118219;23;20053;-70
2023/10/05 06:31:23;;;;;;;11.77;4.07;;;17.00;99.90;;;;;;6114256;23;20534;-69
2023/10/05 06:33:49;;;;;;;10.32;3.08;;;16.50;99.90;;;;;;6120372;23;20025;-70
2023/10/05 06:36:14;;;;;;;9.43;3.00;;;17.30;99.90;;;;;;6096107;23;20017;-70
2023/10/05 06:38:43;;;;;;;9.77;3.15;;;16.90;99.90;;;;;;6118914;23;20089;-70
2023/10/05 06:41:08;;;;;;;10.10;2.90;;;17.10;99.90;;;;;;6120304;23;20014;-70
2023/10/05 06:43:35;;;;;;;10.63;3.15;;;16.70;99.90;;;;;;6120682;23;20388;-70
2023/10/05 06:46:17;;;;;;;8.95;3.00;;;16.90;99.90;;;;;;6119988;23;20098;-70
2023/10/05 06:48:43;;;;;;;14.60;2.90;;;16.70;99.90;;;;;;6117986;23;20073;-70
2023/10/05 06:51:09;;;;;;;9.05;3.15;;;17.70;99.90;;;;;;6118888;23;20010;-70
2023/10/05 06:53:37;;;;;;;12.38;2.72;;;17.20;1.00;;;;;;6120001;23;20388;-70
2023/10/05 06:56:03;;;;;;;9.75;2.97;;;16.70;99.90;;;;;;6119942;23;20096;-70
2023/10/05 06:58:29;;;;;;;9.02;2.97;;;17.40;1.00;;;;;;6118804;23;20097;-70
2023/10/05 07:00:57;;;;;;;12.75;2.97;;;17.30;1.00;;;;;;6120038;23;20539;-70
2023/10/05 07:03:23;;;;;;;11.40;3.38;;;16.60;1.00;;;;;;6120840;23;20025;-70
2023/10/05 07:05:49;;;;;;;9.65;3.72;;;17.00;1.00;;;;;;6120414;23;20006;-70
2023/10/05 07:08:14;;;;;;;9.98;2.88;;;17.60;1.00;;;;;;6120342;23;20073;-70
2023/10/05 07:10:42;;;;;;;9.60;2.83;;;16.20;1.00;;;;;;6120059;23;20021;-70
2023/10/05 07:13:10;;;;;;;7.18;2.75;;;16.70;1.00;;;;;;6095959;23;20010;-70
2023/10/05 07:15:36;;;;;;;9.68;2.58;;;16.80;1.00;;;;;;6120666;23;20056;-70
2023/10/05 07:18:03;;;;;;;9.38;2.67;;;17.10;1.00;;;;;;6118717;23;20021;-70
2023/10/05 07:20:28;;;;;;;8.55;2.75;;;17.20;1.00;;;;;;6118711;23;20010;-70
2023/10/05 07:22:55;;;;;;;11.02;3.80;;;16.80;1.00;;;;;;6118134;23;20025;-70
2023/10/05 07:25:21;;;;;;;16.35;4.55;;;17.50;1.00;;;;;;6116401;23;20018;-70
2023/10/05 07:27:50;;;;;;;12.73;2.92;;;17.20;1.00;;;;;;6117825;23;20057;-70
2023/10/05 07:30:17;;;;;;;13.35;3.60;;;17.10;1.00;;;;;;6115637;23;20010;-70
2023/10/05 07:32:43;;;;;;;9.88;3.25;;;16.80;1.00;;;;;;6116243;23;20475;-72
2023/10/05 07:35:12;;;;;;;14.20;3.92;;;16.90;12.30;;;;;;6109494;23;20474;-70
2023/10/05 07:37:38;;;;;;;11.13;3.35;;;17.60;19.80;;;;;;6111733;23;20022;-70
2023/10/05 07:40:07;;;;;;;13.52;3.65;;;17.00;17.50;;;;;;6119078;23;20033;-70
2023/10/05 07:42:33;;;;;;;10.00;3.40;;;17.10;30.60;;;;;;6117378;23;20554;-70
2023/10/05 07:45:06;;;;;;;11.77;3.30;;;16.80;28.30;;;;;;6117994;23;20018;-70
2023/10/05 07:47:32;;;;;;;12.05;3.60;;;17.10;43.10;;;;;;6117772;23;20085;-70
2023/10/05 07:49:57;;;;;;;13.43;3.65;;;16.80;54.10;;;;;;6118921;23;20045;-70
2023/10/05 07:52:23;;;;;;;11.02;3.92;;;16.90;58.90;;;;;;6119284;23;20014;-70
2023/10/05 07:54:52;;;;;;;10.48;3.45;;;16.90;70.70;;;;;;6116540;23;20010;-70
2023/10/05 07:57:18;;;;;;;11.48;3.00;;;17.10;76.80;;;;;;6118675;23;20053;-70
2023/10/05 07:59:43;;;;;;;7.70;2.53;;;16.90;82.60;;;;;;6118065;23;20010;-70
2023/10/05 08:02:10;;;;;;;11.60;2.97;;;17.50;90.60;;;;;;6115582;23;20014;-70
2023/10/05 08:04:40;;;;;;;9.48;2.85;;;17.10;81.30;;;;;;6119040;23;20032;-70
2023/10/05 08:07:07;;;;;;;11.93;3.10;;;17.40;87.20;;;;;;6117458;23;20076;-70
2023/10/05 08:09:34;;;;;;;11.48;2.92;;;16.80;88.80;;;;;;6116892;23;20032;-70
2023/10/05 08:12:00;;;;;;;11.45;3.42;;;17.00;94.10;;;;;;6120827;23;20347;-71
2023/10/05 08:14:30;;;;;;;10.05;2.83;;;17.20;93.50;;;;;;6118780;23;20343;-71
2023/10/05 08:16:56;;;;;;;8.73;2.85;;;19.20;99.50;;;;;;6115781;23;20085;-70
2023/10/05 08:19:25;;;;;;;10.68;3.13;;;16.50;97.60;;;;;;6115730;23;20049;-70
2023/10/05 08:21:54;;;;;;;10.60;2.70;;;16.60;99.90;;;;;;6121645;23;20048;-70
2023/10/05 08:24:24;;;;;;;8.43;2.95;;;17.00;99.90;;;;;;6113744;23;20046;-70
2023/10/05 08:26:53;;;;;;;12.32;3.08;;;17.10;99.90;;;;;;6120489;23;20010;-70
2023/10/05 08:29:22;;;;;;;15.57;3.20;;;16.90;99.90;;;;;;6119010;23;20049;-70
2023/10/05 08:31:52;;;;;;;10.00;2.90;;;17.60;99.90;;;;;;6072803;23;1112205;-70
2023/10/05 08:34:20;;;;;;;9.02;3.60;;;16.60;99.90;;;;;;6122352;23;20018;-70
2023/10/05 08:36:53;;;;;;;8.43;2.58;;;17.10;99.90;;;;;;6122766;23;20069;-70
2023/10/05 08:39:25;;;;;;;9.63;2.90;;;17.00;99.90;;;;;;6094234;23;20014;-70
2023/10/05 08:41:55;;;;;;;9.55;3.08;;;16.80;99.90;;;;;;6050475;23;20030;-70
2023/10/05 08:44:27;;;;;;;8.35;2.50;;;17.80;99.90;;;;;;6072751;23;20018;-70
2023/10/05 08:46:58;;;;;;;9.93;3.42;;;17.10;99.90;;;;;;6097559;23;20018;-70
2023/10/05 08:49:24;;;;;;;10.52;2.88;;;17.10;99.90;;;;;;6069977;23;20094;-70
2023/10/05 08:51:51;;;;;;;10.68;2.90;;;17.10;99.90;;;;;;6095765;23;20025;-70
2023/10/05 08:54:21;;;;;;;11.00;3.45;;;17.20;99.90;;;;;;6097544;23;20014;-70
2023/10/05 08:56:48;;;;;;;13.38;3.58;;;16.40;99.90;;;;;;6097646;23;20153;-70
2023/10/05 08:59:19;;;;;;;10.23;3.45;;;17.10;99.90;;;;;;6072575;23;20063;-68
2023/10/05 09:01:46;;;;;;;11.20;2.65;;;17.40;99.90;;;;;;6122497;23;20010;-68
2023/10/05 09:06:55;;;;;;;11.38;3.13;;;16.90;99.90;;;;;;6093639;23;20359;-68
2023/10/05 09:12:34;;;;;;;13.65;3.85;;;17.90;99.90;;;;;;6096744;23;20022;-69
2023/10/05 09:15:27;;;;;;;14.07;3.78;;;17.00;99.90;;;;;;6122964;23;20018;-69
2023/10/05 09:17:58;;;;;;;12.02;3.50;;;16.80;99.90;;;;;;6097704;23;20364;-70
2023/10/05 09:20:33;;;;;;;16.23;4.20;;;16.70;99.90;;;;;;6096001;23;20053;-70
2023/10/05 09:23:11;;;;;;;10.27;2.97;;;16.80;99.90;;;;;;6073515;23;20077;-69
2023/10/05 09:25:38;;;;;;;11.00;3.55;;;17.40;99.90;;;;;;6095765;23;20010;-69
2023/10/05 09:28:15;;;;;;;9.93;3.85;;;17.10;99.90;;;;;;6072407;23;20482;-69
2023/10/05 09:30:56;;;;;;;13.55;3.20;;;16.80;99.90;;;;;;6096946;23;20060;-70
2023/10/05 09:33:27;;;;;;;9.90;3.30;;;17.80;99.90;;;;;;6121059;23;20219;-69
2023/10/05 09:36:06;;;;;;;10.90;3.88;;;17.20;99.90;;;;;;6120653;23;20480;-69
2023/10/05 09:38:43;;;;;;;9.35;2.83;;;17.30;99.90;;;;;;6121665;23;20044;-69
2023/10/05 09:41:11;;;;;;;9.93;2.83;;;16.80;99.90;;;;;;6120717;23;20101;-70
2023/10/05 09:43:42;;;;;;;10.35;3.10;;;17.30;99.90;;;;;;6095356;23;20045;-69
2023/10/05 09:46:14;;;;;;;10.25;3.05;;;17.70;99.90;;;;;;6094384;23;20014;-70
2023/10/05 09:48:40;;;;;;;10.95;3.05;;;17.80;99.90;;;;;;6120451;23;20081;-70
2023/10/05 09:51:07;;;;;;;11.68;3.10;;;17.90;99.90;;;;;;6095916;23;20102;-69
2023/10/05 09:53:35;;;;;;;11.77;3.40;;;17.20;99.90;;;;;;6072117;23;20026;-69
2023/10/05 09:56:01;;;;;;;11.98;3.80;;;17.80;99.90;;;;;;6072897;23;20014;-69
2023/10/05 09:58:28;;;;;;;12.45;3.78;;;16.70;99.90;;;;;;6096289;23;20379;-69
2023/10/05 10:00:55;;;;;;;13.85;3.28;;;17.20;99.90;;;;;;6123050;23;20010;-70
2023/10/05 10:03:22;;;;;;;9.85;2.85;;;16.90;99.90;;;;;;6123168;23;20021;-69
2023/10/05 10:06:08;;;;;;;8.88;2.80;;;17.60;99.90;;;;;;6122613;23;20045;-69
2023/10/05 10:08:50;;;;;;;7.80;2.70;;;16.90;99.90;;;;;;6122606;23;20089;-69
2023/10/05 10:11:24;;;;;;;6.97;2.78;;;17.30;99.90;;;;;;6122227;23;20460;-70
2023/10/05 10:14:15;;;;;;;13.32;3.22;;;17.20;99.90;;;;;;6096748;23;20028;-69
2023/10/05 10:16:43;;;;;;;11.98;3.33;;;17.30;99.90;;;;;;6096367;23;20101;-69
2023/10/05 10:19:21;;;;;;;9.77;2.90;;;17.10;99.90;;;;;;6095664;23;20021;-69
2023/10/05 10:22:00;;;;;;;9.68;2.88;;;16.80;99.90;;;;;;6096463;23;20486;-69
2023/10/05 10:24:28;;;;;;;10.15;3.38;;;17.80;99.90;;;;;;6123411;23;20088;-69
2023/10/05 10:27:08;;;;;;;8.88;3.25;;;17.30;99.90;;;;;;6122340;23;20017;-69
2023/10/05 10:29:46;;;;;;;13.43;3.45;;;17.90;99.90;;;;;;6095308;23;20017;-69
2023/10/05 10:32:22;;;;;;;9.05;2.85;;;17.80;99.90;;;;;;6121678;23;20407;-69
2023/10/05 10:35:09;;;;;;;10.35;2.80;;;17.40;99.90;;;;;;6093831;23;20041;-69
2023/10/05 10:37:39;;;;;;;12.77;3.33;;;16.80;99.40;;;;;;6121053;23;20052;-69
2023/10/05 10:45:41;;;;;;;10.15;3.00;;;17.90;90.30;;;;;;6091838;23;20018;-69
2023/10/05 10:50:45;;;;;;;9.73;3.08;;;16.90;98.60;;;;;;6094008;23;20085;-69
2023/10/05 10:53:18;;;;;;;9.23;3.65;;;17.30;96.80;;;;;;6096477;23;20010;-70
2023/10/05 10:56:17;;;;;;;11.07;3.03;;;17.70;99.90;;;;;;6070188;23;20025;-69
2023/10/05 10:58:44;;;;;;;11.75;3.10;;;17.00;82.10;;;;;;6094893;23;20041;-69
2023/10/05 11:01:22;;;;;;;9.15;3.13;;;17.40;90.20;;;;;;6096099;23;20474;-70
2023/10/05 11:04:01;;;;;;;10.93;3.60;;;;;;;;;;6096910;23;20041;-70
2023/10/05 11:06:28;;;;;;;12.85;3.15;;;16.80;94.30;;;;;;6096428;23;20013;-70
2023/10/05 11:08:59;;;;;;;8.77;2.95;;;18.00;99.00;;;;;;6072037;23;20022;-70
2023/10/05 11:11:26;;;;;;;13.57;2.90;;;17.30;93.90;;;;;;6096583;23;20018;-70
2023/10/05 11:13:55;;;;;;;9.52;3.00;;;18.20;99.90;;;;;;6096332;23;20104;-70
2023/10/05 11:16:31;;;;;;;11.55;2.97;;;18.00;99.90;;;;;;6074238;23;20163;-70
2023/10/05 11:19:03;;;;;;;8.48;2.67;;;16.80;99.90;;;;;;6124129;23;20515;-70
2023/10/05 11:21:36;;;;;;;11.25;3.03;;;18.10;99.90;;;;;;6124646;23;20014;-70
2023/10/05 11:24:06;;;;;;;14.32;3.08;;;18.20;99.90;;;;;;6099347;23;20090;-69
2023/10/05 11:26:33;;;;;;;10.60;3.55;;;18.00;82.30;;;;;;6125183;23;20014;-70
2023/10/05 11:29:07;;;;;;;8.45;2.88;;;17.00;97.60;;;;;;6124581;23;20010;-69
2023/10/05 11:31:38;;;;;;;10.55;3.28;;;17.00;95.60;;;;;;6099352;23;20064;-69
2023/10/05 11:34:09;;;;;;;8.68;3.05;;;17.50;92.90;;;;;;6075214;23;20112;-69
2023/10/05 11:36:39;;;;;;;10.20;3.22;;;18.00;94.40;;;;;;6098383;23;20022;-69
2023/10/05 11:39:08;;;;;;;11.75;3.35;;;18.10;99.80;;;;;;6124256;23;20089;-69
2023/10/05 11:41:34;;;;;;;9.15;2.90;;;17.50;99.90;;;;;;6121752;23;20089;-69
2023/10/05 11:44:00;;;;;;;11.05;3.40;;;17.60;99.90;;;;;;6124332;23;20081;-69
2023/10/05 11:46:43;;;;;;;11.27;2.85;;;17.50;99.90;;;;;;6124013;23;20010;-69
2023/10/05 11:49:10;;;;;;;6.82;2.45;;;17.10;99.90;;;;;;6123896;23;20014;-69
2023/10/05 11:51:42;;;;;;;12.63;3.17;;;17.80;99.90;;;;;;6098151;23;20286;-69
2023/10/05 11:54:12;;;;;;;8.40;2.45;;;17.40;99.90;;;;;;6096318;23;20018;-69
2023/10/05 11:56:41;;;;;;;9.77;3.30;;;16.80;99.90;;;;;;6073750;23;20025;-69
2023/10/05 11:59:09;;;;;;;7.85;2.70;;;18.10;99.90;;;;;;6096951;23;20045;-69
2023/10/05 12:01:37;;;;;;;9.52;2.90;;;17.30;99.90;;;;;;6096749;23;20432;-69
2023/10/05 12:04:08;;;;;;;9.73;3.38;;;17.50;99.90;;;;;;6097591;23;20456;-69
2023/10/05 12:06:37;;;;;;;8.93;3.30;;;17.00;99.90;;;;;;6121828;23;20006;-69
2023/10/05 12:09:07;;;;;;;11.75;3.17;;;17.60;99.90;;;;;;6095185;23;20018;-69
2023/10/05 12:11:36;;;;;;;7.88;2.45;;;17.30;99.90;;;;;;6071915;23;20041;-69
2023/10/05 12:14:04;;;;;;;10.30;3.08;;;17.00;99.90;;;;;;6096247;23;20345;-69
2023/10/05 12:16:34;;;;;;;10.48;4.15;;;17.60;99.90;;;;;;6096690;23;20018;-70
2023/10/05 12:19:16;;;;;;;10.27;2.92;;;17.90;99.90;;;;;;6096626;23;20018;-69
2023/10/05 12:21:44;;;;;;;8.82;2.55;;;17.20;99.90;;;;;;6096201;23;20028;-69
2023/10/05 12:24:13;;;;;;;8.73;2.80;;;18.30;99.90;;;;;;6122187;23;20413;-69
2023/10/05 12:26:42;;;;;;;11.20;2.78;;;16.90;99.90;;;;;;6072518;23;20089;-71
2023/10/05 12:29:12;;;;;;;10.85;3.35;;;17.60;99.90;;;;;;6096572;23;20014;-70
2023/10/05 12:31:42;;;;;;;8.68;2.47;;;17.50;99.90;;;;;;6096921;23;20021;-69
2023/10/05 12:34:14;;;;;;;8.82;2.97;;;16.90;99.90;;;;;;6123888;23;20010;-69
2023/10/05 12:36:49;;;;;;;9.48;2.92;;;17.70;99.90;;;;;;6095994;23;20073;-69
2023/10/05 12:39:20;;;;;;;10.63;3.20;;;17.10;99.90;;;;;;6096938;23;20049;-69
2023/10/05 12:41:46;;;;;;;10.30;3.00;;;17.40;99.90;;;;;;6097337;23;20029;-69
2023/10/05 12:44:15;;;;;;;9.35;3.13;;;17.40;99.90;;;;;;6096517;23;20240;-70
2023/10/05 12:46:42;;;;;;;7.43;2.17;;;17.10;99.90;;;;;;6069908;23;20025;-70
2023/10/05 12:49:09;;;;;;;9.15;3.03;;;18.30;99.90;;;;;;6094666;23;20097;-69
2023/10/05 12:51:38;;;;;;;9.13;2.53;;;17.50;99.90;;;;;;6121073;23;20324;-69
2023/10/05 12:54:09;;;;;;;10.45;3.80;;;18.50;99.90;;;;;;6122065;23;20029;-70
2023/10/05 12:56:38;;;;;;;8.88;2.67;;;17.50;99.90;;;;;;6096920;23;20021;-70
2023/10/05 12:59:07;;;;;;;9.88;2.78;;;17.50;99.90;;;;;;6072279;23;20017;-69
2023/10/05 13:01:43;;;;;;;8.05;3.40;;;17.40;99.90;;;;;;6095336;23;20029;-69
2023/10/05 13:04:12;;;;;;;10.82;2.80;;;17.60;99.90;;;;;;6123696;23;20010;-69
2023/10/05 13:06:39;;;;;;;6.65;2.72;;;18.10;99.90;;;;;;6096894;23;20014;-69
2023/10/05 13:09:12;;;;;;;9.07;2.67;;;18.20;99.90;;;;;;6094810;23;20014;-69
2023/10/05 13:11:38;;;;;;;8.65;2.75;;;17.60;99.90;;;;;;6094120;23;20464;-69
2023/10/05 13:14:08;;;;;;;8.38;2.67;;;18.80;99.90;;;;;;6073133;23;20021;-69
2023/10/05 13:16:35;;;;;;;9.43;2.90;;;18.30;99.90;;;;;;6097160;23;20025;-69
2023/10/05 13:19:06;;;;;;;10.55;3.38;;;18.40;99.90;;;;;;6122070;23;20021;-69
2023/10/05 13:21:32;;;;;;;7.18;2.40;;;17.90;99.90;;;;;;6096937;23;20097;-69
2023/10/05 13:23:58;;;;;;;8.45;2.40;;;17.90;99.90;;;;;;6121805;23;20021;-69
2023/10/05 13:26:26;;;;;;;7.75;2.45;;;17.90;99.90;;;;;;6095553;23;20146;-69
2023/10/05 13:28:53;;;;;;;6.28;2.28;;;16.30;99.90;;;;;;6094976;23;20356;-69